createdAt,value
2023-03-20T00:02:07.418Z,9.35
2023-03-20T00:05:16.860Z,9.32
2023-03-20T00:08:29.779Z,9.37
2023-03-20T00:11:56.802Z,9.41
2023-03-20T00:15:24.895Z,9.42
2023-03-20T00:18:52.862Z,9.44
2023-03-20T00:22:01.747Z,9.45
2023-03-20T00:25:31.679Z,9.44
2023-03-20T00:28:48.118Z,9.39
2023-03-20T00:32:16.297Z,9.29
2023-03-20T00:35:44.392Z,9.21
2023-03-20T00:39:13.956Z,9.13
2023-03-20T00:42:42.425Z,9.10
2023-03-20T00:46:10.562Z,9.04
2023-03-20T00:49:38.947Z,8.96
2023-03-20T00:53:06.819Z,8.90
2023-03-20T00:56:35.620Z,8.84
2023-03-20T00:59:45.757Z,8.78
2023-03-20T01:03:14.045Z,8.75
2023-03-20T01:06:42.604Z,8.72
2023-03-20T01:10:10.896Z,8.69
2023-03-20T01:13:35.131Z,8.67
2023-03-20T01:17:03.197Z,8.63
2023-03-20T01:20:31.362Z,8.53
2023-03-20T01:23:39.975Z,8.49
2023-03-20T01:27:07.989Z,8.44
2023-03-20T01:30:36.013Z,8.43
2023-03-20T01:34:03.939Z,8.42
2023-03-20T01:37:31.817Z,8.39
2023-03-20T01:40:40.761Z,8.33
2023-03-20T01:44:08.889Z,8.31
2023-03-20T01:47:36.869Z,8.34
2023-03-20T01:51:04.840Z,8.36
2023-03-20T01:54:32.836Z,8.38
2023-03-20T01:58:02.980Z,8.36
2023-03-20T02:01:29.412Z,8.31
2023-03-20T02:04:57.733Z,8.27
2023-03-20T02:08:25.725Z,8.28
2023-03-20T02:11:41.824Z,8.32
2023-03-20T02:14:50.574Z,8.36
2023-03-20T02:18:24.179Z,8.32
2023-03-20T02:21:52.531Z,8.28
2023-03-20T02:25:01.376Z,8.29
2023-03-20T02:28:29.499Z,8.21
2023-03-20T02:31:52.962Z,8.17
2023-03-20T02:35:20.936Z,8.14
2023-03-20T02:38:49.005Z,8.11
2023-03-20T02:42:17.076Z,8.05
2023-03-20T02:45:45.145Z,8.04
2023-03-20T02:49:13.391Z,8.04
2023-03-20T02:52:41.881Z,8.09
2023-03-20T02:56:09.899Z,8.09
2023-03-20T02:59:37.883Z,8.08
2023-03-20T03:02:48.588Z,8.06
2023-03-20T03:06:16.325Z,8.06
2023-03-20T03:09:44.373Z,8.10
2023-03-20T03:13:12.822Z,8.12
2023-03-20T03:16:41.250Z,8.07
2023-03-20T03:20:09.471Z,8.02
2023-03-20T03:23:37.635Z,7.93
2023-03-20T03:27:05.817Z,7.86
2023-03-20T03:30:33.962Z,7.83
2023-03-20T03:34:03.328Z,7.78
2023-03-20T03:37:31.370Z,7.74
2023-03-20T03:40:59.547Z,7.63
2023-03-20T03:44:28.148Z,7.58
2023-03-20T03:47:56.047Z,7.55
2023-03-20T03:51:24.055Z,7.56
2023-03-20T03:54:52.035Z,7.59
2023-03-20T03:57:51.524Z,7.62
2023-03-20T04:01:00.342Z,7.67
2023-03-20T04:04:28.137Z,7.73
2023-03-20T04:07:56.049Z,7.73
2023-03-20T04:11:25.328Z,7.74
2023-03-20T04:14:53.761Z,7.75
2023-03-20T04:18:23.098Z,7.80
2023-03-20T04:21:32.449Z,7.83
2023-03-20T04:25:00.494Z,7.89
2023-03-20T04:28:24.116Z,7.94
2023-03-20T04:31:52.176Z,7.98
2023-03-20T04:35:03.501Z,8.04
2023-03-20T04:38:15.528Z,8.06
2023-03-20T04:41:43.886Z,8.09
2023-03-20T04:45:13.347Z,8.08
2023-03-20T04:48:41.650Z,8.04
2023-03-20T04:52:10.345Z,8.02
2023-03-20T04:55:19.979Z,8.00
2023-03-20T04:58:47.946Z,8.04
2023-03-20T05:01:56.643Z,8.02
2023-03-20T05:05:24.647Z,8.03
2023-03-20T05:08:53.278Z,8.08
2023-03-20T05:12:05.303Z,8.14
2023-03-20T05:15:16.816Z,8.17
2023-03-20T05:18:10.828Z,8.15
2023-03-20T05:21:12.347Z,8.17
2023-03-20T05:24:39.453Z,8.20
2023-03-20T05:28:13.318Z,8.24
2023-03-20T05:31:47.265Z,8.30
2023-03-20T05:35:24.473Z,8.39
2023-03-20T05:38:52.690Z,8.45
2023-03-20T05:42:32.798Z,8.54
2023-03-20T05:45:57.477Z,8.67
2023-03-20T05:49:37.880Z,8.78
2023-03-20T05:53:06.068Z,8.90
2023-03-20T05:56:33.440Z,9.00
2023-03-20T05:59:59.874Z,9.16
2023-03-20T06:03:07.845Z,9.33
2023-03-20T06:05:56.085Z,9.44
2023-03-20T06:09:24.296Z,9.57
2023-03-20T06:12:52.573Z,9.70
2023-03-20T06:16:20.686Z,9.78
2023-03-20T06:19:25.441Z,9.93
2023-03-20T06:22:34.019Z,10.06
2023-03-20T06:25:48.402Z,10.10
2023-03-20T06:28:57.254Z,10.13
2023-03-20T06:31:54.260Z,10.16
2023-03-20T06:35:22.599Z,10.27
2023-03-20T06:38:11.678Z,10.37
2023-03-20T06:41:01.369Z,10.46
2023-03-20T06:44:25.618Z,10.58
2023-03-20T06:47:34.077Z,10.65
2023-03-20T06:51:01.922Z,10.69
2023-03-20T06:54:18.107Z,10.71
2023-03-20T06:57:46.317Z,10.95
2023-03-20T07:01:14.336Z,11.16
2023-03-20T07:04:04.620Z,11.19
2023-03-20T07:07:32.702Z,11.39
2023-03-20T07:10:42.872Z,11.52
2023-03-20T07:13:55.005Z,11.66
2023-03-20T07:17:23.444Z,11.83
2023-03-20T07:20:33.145Z,11.87
2023-03-20T07:23:50.046Z,11.99
2023-03-20T07:27:18.137Z,12.18
2023-03-20T07:30:46.428Z,12.35
2023-03-20T07:34:03.200Z,12.50
2023-03-20T07:37:19.716Z,12.66
2023-03-20T07:40:48.166Z,12.83
2023-03-20T07:44:16.206Z,13.05
2023-03-20T07:47:44.559Z,13.25
2023-03-20T07:51:12.677Z,13.41
2023-03-20T07:53:42.148Z,13.47
2023-03-20T07:57:10.296Z,13.56
2023-03-20T08:00:38.415Z,13.42
2023-03-20T08:04:06.457Z,13.62
2023-03-20T08:07:34.560Z,13.78
2023-03-20T08:10:43.483Z,13.88
2023-03-20T08:13:59.750Z,13.98
2023-03-20T08:17:14.970Z,13.93
2023-03-20T08:20:24.923Z,13.98
2023-03-20T08:23:33.291Z,14.09
2023-03-20T08:27:01.339Z,14.18
2023-03-20T08:30:13.283Z,14.21
2023-03-20T08:33:21.628Z,14.33
2023-03-20T08:36:27.524Z,14.22
2023-03-20T08:39:55.279Z,14.25
2023-03-20T08:43:04.631Z,14.32
2023-03-20T08:46:33.063Z,14.31
2023-03-20T08:50:01.225Z,14.38
2023-03-20T08:52:57.494Z,14.44
2023-03-20T08:56:25.520Z,14.69
2023-03-20T08:59:54.648Z,14.84
2023-03-20T09:03:03.233Z,15.05
2023-03-20T09:06:12.240Z,15.06
2023-03-20T09:09:38.012Z,15.19
2023-03-20T09:12:07.701Z,15.35
2023-03-20T09:15:36.156Z,15.36
2023-03-20T09:18:44.473Z,15.44
2023-03-20T09:22:12.801Z,15.39
2023-03-20T09:25:40.964Z,15.49
2023-03-20T09:28:49.214Z,15.73
2023-03-20T09:31:38.207Z,15.99
2023-03-20T09:34:54.216Z,16.17
2023-03-20T09:37:44.249Z,16.38
2023-03-20T09:40:35.790Z,16.64
2023-03-20T09:44:05.082Z,16.92
2023-03-20T09:47:00.380Z,17.06
2023-03-20T09:49:39.847Z,17.11
2023-03-20T09:52:48.853Z,17.32
2023-03-20T09:55:56.908Z,17.37
2023-03-20T09:59:12.564Z,17.56
2023-03-20T10:02:02.157Z,17.82
2023-03-20T10:04:51.028Z,18.09
2023-03-20T10:07:49.152Z,18.06
2023-03-20T10:10:41.254Z,18.30
2023-03-20T10:13:50.102Z,18.41
2023-03-20T10:16:58.846Z,18.53
2023-03-20T10:20:07.503Z,18.62
2023-03-20T10:23:16.966Z,18.61
2023-03-20T10:26:27.051Z,18.71
2023-03-20T10:29:19.313Z,18.91
2023-03-20T10:32:48.042Z,19.11
2023-03-20T10:35:48.157Z,19.07
2023-03-20T10:38:44.679Z,19.40
2023-03-20T10:41:53.480Z,19.57
2023-03-20T10:45:21.465Z,19.75
2023-03-20T10:48:10.475Z,19.82
2023-03-20T10:51:19.286Z,19.96
2023-03-20T10:54:28.214Z,20.11
2023-03-20T10:57:37.494Z,20.23
2023-03-20T11:01:05.437Z,20.40
2023-03-20T11:04:30.249Z,20.41
2023-03-20T11:07:58.019Z,20.22
2023-03-20T11:11:26.365Z,20.29
2023-03-20T11:14:54.343Z,20.42
2023-03-20T11:18:22.375Z,20.30
2023-03-20T11:21:50.458Z,20.52
2023-03-20T11:24:59.121Z,20.60
2023-03-20T11:28:11.056Z,20.40
2023-03-20T11:31:20.134Z,20.24
2023-03-20T11:33:49.117Z,20.26
2023-03-20T11:37:17.047Z,20.45
2023-03-20T11:40:25.944Z,20.63
2023-03-20T11:43:36.384Z,20.73
2023-03-20T11:47:04.472Z,20.82
2023-03-20T11:50:32.721Z,20.61
2023-03-20T11:53:25.950Z,20.68
2023-03-20T11:56:07.960Z,20.91
2023-03-20T11:59:17.218Z,20.97
2023-03-20T12:02:23.452Z,21.09
2023-03-20T12:05:16.812Z,21.18
2023-03-20T12:08:22.737Z,21.26
2023-03-20T12:10:51.789Z,21.40
2023-03-20T12:14:00.779Z,21.55
2023-03-20T12:16:29.689Z,21.80
2023-03-20T12:19:19.223Z,21.82
2023-03-20T12:22:09.297Z,21.78
2023-03-20T12:25:37.541Z,21.47
2023-03-20T12:28:53.334Z,21.44
2023-03-20T12:32:01.691Z,21.63
2023-03-20T12:35:21.486Z,21.73
2023-03-20T12:38:10.879Z,21.73
2023-03-20T12:41:38.867Z,21.55
2023-03-20T12:44:55.007Z,21.63
2023-03-20T12:48:05.515Z,21.80
2023-03-20T12:51:33.748Z,21.89
2023-03-20T12:55:01.950Z,21.91
2023-03-20T12:58:09.956Z,21.61
2023-03-20T13:00:59.428Z,21.52
2023-03-20T13:04:23.091Z,21.61
2023-03-20T13:07:32.149Z,21.47
2023-03-20T13:11:00.641Z,21.32
2023-03-20T13:14:17.336Z,21.07
2023-03-20T13:17:45.421Z,20.96
2023-03-20T13:21:13.689Z,20.82
2023-03-20T13:24:41.946Z,20.66
2023-03-20T13:28:12.276Z,20.43
2023-03-20T13:31:40.801Z,20.28
2023-03-20T13:34:49.202Z,20.15
2023-03-20T13:38:17.665Z,20.17
2023-03-20T13:41:45.907Z,20.24
2023-03-20T13:45:14.093Z,20.46
2023-03-20T13:48:42.468Z,20.57
2023-03-20T13:51:51.147Z,20.37
2023-03-20T13:55:19.314Z,20.32
2023-03-20T13:58:48.535Z,20.26
2023-03-20T14:02:17.091Z,20.05
2023-03-20T14:05:25.036Z,19.78
2023-03-20T14:08:34.089Z,19.74
2023-03-20T14:12:02.355Z,19.50
2023-03-20T14:15:30.589Z,19.40
2023-03-20T14:18:59.597Z,19.54
2023-03-20T14:22:27.978Z,19.79
2023-03-20T14:25:56.323Z,20.09
2023-03-20T14:29:24.397Z,20.49
2023-03-20T14:32:52.549Z,20.95
2023-03-20T14:36:29.350Z,21.57
2023-03-20T14:39:37.506Z,21.95
2023-03-20T14:42:26.261Z,22.09
2023-03-20T14:45:54.179Z,22.03
2023-03-20T14:49:22.278Z,21.81
2023-03-20T14:52:50.397Z,22.17
2023-03-20T14:56:18.510Z,22.91
2023-03-20T14:59:46.573Z,23.11
2023-03-20T15:02:54.711Z,23.49
2023-03-20T15:06:19.490Z,23.90
2023-03-20T15:08:49.230Z,23.84
2023-03-20T15:11:57.344Z,24.11
2023-03-20T15:15:25.168Z,24.49
2023-03-20T15:18:53.228Z,24.52
2023-03-20T15:22:21.413Z,24.22
2023-03-20T15:25:11.732Z,24.21
2023-03-20T15:28:39.634Z,23.82
2023-03-20T15:32:14.485Z,22.94
2023-03-20T15:35:35.724Z,22.27
2023-03-20T15:39:03.775Z,21.65
2023-03-20T15:42:12.763Z,21.19
2023-03-20T15:45:21.101Z,20.80
2023-03-20T15:48:30.105Z,20.49
2023-03-20T15:51:38.845Z,20.14
2023-03-20T15:55:07.190Z,19.78
2023-03-20T15:58:35.438Z,19.63
2023-03-20T16:01:43.934Z,19.55
2023-03-20T16:05:11.916Z,19.44
2023-03-20T16:08:39.866Z,19.09
2023-03-20T16:12:08.344Z,18.75
2023-03-20T16:15:32.938Z,18.42
2023-03-20T16:19:01.238Z,18.25
2023-03-20T16:22:10.094Z,18.01
2023-03-20T16:25:38.488Z,17.80
2023-03-20T16:29:06.377Z,17.49
2023-03-20T16:32:34.388Z,17.39
2023-03-20T16:36:02.468Z,17.17
2023-03-20T16:39:11.213Z,17.00
2023-03-20T16:42:00.481Z,16.77
2023-03-20T16:45:28.514Z,16.64
2023-03-20T16:48:57.333Z,16.46
2023-03-20T16:52:25.383Z,16.33
2023-03-20T16:55:53.375Z,16.14
2023-03-20T16:59:05.543Z,16.05
2023-03-20T17:02:33.905Z,15.97
2023-03-20T17:06:01.846Z,15.88
2023-03-20T17:09:29.933Z,15.77
2023-03-20T17:12:58.543Z,15.70
2023-03-20T17:16:26.900Z,15.64
2023-03-20T17:19:44.903Z,15.58
2023-03-20T17:23:12.852Z,15.51
2023-03-20T17:26:41.092Z,15.37
2023-03-20T17:30:11.591Z,15.24
2023-03-20T17:33:36.846Z,15.10
2023-03-20T17:37:04.902Z,15.06
2023-03-20T17:40:16.758Z,15.04
2023-03-20T17:43:44.869Z,14.95
2023-03-20T17:46:58.632Z,14.89
2023-03-20T17:50:23.272Z,14.84
2023-03-20T17:53:51.099Z,14.77
2023-03-20T17:57:00.992Z,14.73
2023-03-20T18:00:24.877Z,14.66
2023-03-20T18:03:33.241Z,14.63
2023-03-20T18:07:01.594Z,14.60
2023-03-20T18:10:29.331Z,14.56
2023-03-20T18:13:57.352Z,14.53
2023-03-20T18:17:25.508Z,14.43
2023-03-20T18:20:53.673Z,14.26
2023-03-20T18:24:21.776Z,14.16
2023-03-20T18:27:49.864Z,14.08
2023-03-20T18:31:17.767Z,14.01
2023-03-20T18:34:27.645Z,13.97
2023-03-20T18:37:16.778Z,13.95
2023-03-20T18:40:44.776Z,13.92
2023-03-20T18:44:12.749Z,13.89
2023-03-20T18:47:21.596Z,13.94
2023-03-20T18:50:49.566Z,13.98
2023-03-20T18:54:17.861Z,13.98
2023-03-20T18:57:45.776Z,14.04
2023-03-20T19:00:54.231Z,14.01
2023-03-20T19:04:22.413Z,14.03
2023-03-20T19:07:50.308Z,13.98
2023-03-20T19:11:21.272Z,13.98
2023-03-20T19:14:46.088Z,13.99
2023-03-20T19:18:14.049Z,13.97
2023-03-20T19:21:42.140Z,13.92
2023-03-20T19:25:10.088Z,13.92
2023-03-20T19:28:40.886Z,13.83
2023-03-20T19:32:05.908Z,13.72
2023-03-20T19:39:03.066Z,13.52
2023-03-20T19:42:52.918Z,13.45
2023-03-20T19:45:59.548Z,13.37
2023-03-20T19:49:08.664Z,13.29
2023-03-20T19:52:36.525Z,13.25
2023-03-20T19:56:04.271Z,13.19
2023-03-20T19:59:32.871Z,13.20
2023-03-20T20:03:00.601Z,13.16
2023-03-20T20:06:32.236Z,13.10
2023-03-20T20:09:56.633Z,13.09
2023-03-20T20:12:25.254Z,13.09
2023-03-20T20:15:53.311Z,13.09
2023-03-20T20:19:21.351Z,13.12
2023-03-20T20:22:49.411Z,13.12
2023-03-20T20:26:17.414Z,13.11
2023-03-20T20:29:45.235Z,13.06
2023-03-20T20:33:14.412Z,13.02
2023-03-20T20:39:50.932Z,13.13
2023-03-20T20:43:43.949Z,13.22
2023-03-20T20:46:46.918Z,13.26
2023-03-20T20:50:14.659Z,13.20
2023-03-20T20:53:42.713Z,13.17
2023-03-20T20:56:50.795Z,13.18
2023-03-20T21:00:00.145Z,13.22
2023-03-20T21:03:09.833Z,13.19
2023-03-20T21:07:06.235Z,13.14
2023-03-20T21:10:06.382Z,13.14
2023-03-20T21:13:34.452Z,13.07
2023-03-20T21:17:02.486Z,13.05
2023-03-20T21:20:30.395Z,13.04
2023-03-20T21:23:58.393Z,12.97
2023-03-20T21:27:26.595Z,12.95
2023-03-20T21:30:34.605Z,12.94
2023-03-20T21:34:02.564Z,12.91
2023-03-20T21:40:58.677Z,12.94
2023-03-20T21:45:05.762Z,12.99
2023-03-20T21:55:22.370Z,12.99
2023-03-20T22:05:53.131Z,12.86
2023-03-20T22:09:39.047Z,12.81
2023-03-20T22:13:00.388Z,12.75
2023-03-20T22:16:24.230Z,12.70
2023-03-20T22:20:03.574Z,12.66
2023-03-20T22:23:06.922Z,12.58
2023-03-20T22:26:30.966Z,12.54
2023-03-20T22:29:52.459Z,12.47
2023-03-20T22:33:23.698Z,12.39
2023-03-20T22:36:25.659Z,12.31
2023-03-20T22:46:05.659Z,12.08
2023-03-20T22:49:20.534Z,12.02
2023-03-20T22:52:49.886Z,11.99
2023-03-20T22:56:16.093Z,11.94
2023-03-20T22:59:44.159Z,11.86
2023-03-20T23:02:57.295Z,11.71
2023-03-20T23:06:22.030Z,11.64
2023-03-20T23:09:49.792Z,11.55
2023-03-20T23:13:17.611Z,11.48
2023-03-20T23:16:45.627Z,11.44
2023-03-20T23:20:08.674Z,11.45
2023-03-20T23:23:23.275Z,11.46
2023-03-20T23:26:31.932Z,11.42
2023-03-20T23:29:59.571Z,11.39
2023-03-20T23:33:08.862Z,11.37
2023-03-20T23:36:37.696Z,11.38
2023-03-20T23:40:04.579Z,11.35
2023-03-20T23:43:32.594Z,11.38
2023-03-20T23:47:03.289Z,11.40
2023-03-20T23:50:36.873Z,11.44
2023-03-20T23:53:56.832Z,11.43
2023-03-20T23:56:48.531Z,11.44
